Time;durP1;ratioP1;P1;durP2;ratioP2;P2;SDS_P1;SDS_P2;PMS_P1;PMS_P2;Temp;Humidity;BMP_temperature;BMP_pressure;BME280_temperature;BME280_humidity;BME280_pressure;Samples;Min_cycle;Max_cycle;Signal;HPM_P1;HPM_P2
2022/09/11 00:00:46;;;;;;;2.55;0.80;;;16.80;99.90;;;;;;5029017;28;20774;-70
2022/09/11 00:03:11;;;;;;;2.28;1.05;;;16.80;99.90;;;;;;5036089;28;20418;-69
2022/09/11 00:05:38;;;;;;;2.20;0.82;;;16.80;99.90;;;;;;5045795;28;20898;-68
2022/09/11 00:08:06;;;;;;;2.20;0.80;;;16.80;99.90;;;;;;5038258;28;20502;-69
2022/09/11 00:10:34;;;;;;;1.88;1.00;;;16.80;99.90;;;;;;5037015;28;20402;-69
2022/09/11 00:12:59;;;;;;;2.28;0.70;;;16.80;99.90;;;;;;5041206;28;20393;-69
2022/09/11 00:15:25;;;;;;;0.93;0.70;;;16.80;99.90;;;;;;5041693;28;20469;-70
2022/09/11 00:17:50;;;;;;;2.10;0.93;;;16.80;99.90;;;;;;5035094;28;20747;-70
2022/09/11 00:20:16;;;;;;;1.13;0.73;;;16.80;99.90;;;;;;5042767;28;20398;-69
2022/09/11 00:22:41;;;;;;;2.80;1.00;;;16.70;99.90;;;;;;5040411;28;20432;-68
2022/09/11 00:25:07;;;;;;;1.20;0.73;;;16.70;99.90;;;;;;5037408;28;21021;-70
2022/09/11 00:27:33;;;;;;;1.77;0.85;;;16.80;99.90;;;;;;5039267;28;20863;-70
2022/09/11 00:29:59;;;;;;;2.17;0.90;;;16.80;99.90;;;;;;5038260;28;20426;-69
2022/09/11 00:32:24;;;;;;;1.60;0.50;;;16.80;99.90;;;;;;5041791;28;20401;-69
2022/09/11 00:34:50;;;;;;;2.80;1.40;;;16.80;99.90;;;;;;5038778;28;20445;-69
2022/09/11 00:37:15;;;;;;;1.00;0.70;;;16.80;99.90;;;;;;5038872;28;20407;-69
2022/09/11 00:39:41;;;;;;;3.00;0.93;;;16.80;99.90;;;;;;5040614;28;20932;-69
2022/09/11 00:42:08;;;;;;;1.70;0.70;;;16.80;99.90;;;;;;5037169;28;20900;-68
2022/09/11 00:44:34;;;;;;;2.03;0.77;;;16.80;99.90;;;;;;5040185;28;20922;-69
2022/09/11 00:47:04;;;;;;;1.63;0.73;;;16.80;99.90;;;;;;5042434;28;20421;-70
2022/09/11 00:49:46;;;;;;;1.90;1.10;;;16.80;99.90;;;;;;5043853;28;20407;-68
2022/09/11 00:52:21;;;;;;;3.83;1.08;;;16.80;99.90;;;;;;5046274;28;20401;-68
2022/09/11 00:54:55;;;;;;;1.70;0.87;;;16.80;99.90;;;;;;5036310;28;20508;-68
2022/09/11 00:57:25;;;;;;;1.65;0.60;;;16.70;99.90;;;;;;5042494;28;20755;-69
2022/09/11 00:59:54;;;;;;;2.25;0.70;;;16.80;99.90;;;;;;5041899;28;20486;-69
2022/09/11 01:02:23;;;;;;;2.10;0.70;;;16.70;99.90;;;;;;5042521;28;20496;-69
2022/09/11 01:04:49;;;;;;;2.65;1.10;;;16.80;99.90;;;;;;5040013;28;20458;-70
2022/09/11 01:07:17;;;;;;;0.95;0.80;;;16.70;99.90;;;;;;5040424;28;20905;-69
2022/09/11 01:09:43;;;;;;;2.80;0.80;;;16.80;99.90;;;;;;5037676;28;20418;-68
2022/09/11 01:12:11;;;;;;;1.90;0.80;;;16.80;99.90;;;;;;5044077;28;20469;-69
2022/09/11 01:14:58;;;;;;;2.13;0.90;;;16.80;99.90;;;;;;5041299;28;20405;-69
2022/09/11 01:17:44;;;;;;;1.33;0.82;;;16.90;99.90;;;;;;5032012;28;20414;-69
2022/09/11 01:20:25;;;;;;;1.63;0.70;;;16.80;99.90;;;;;;5007559;28;20732;-69
2022/09/11 01:23:13;;;;;;;2.70;1.10;;;16.70;99.90;;;;;;5024769;28;20471;-70
2022/09/11 01:26:07;;;;;;;2.58;0.70;;;16.70;99.90;;;;;;5042535;28;20816;-70
2022/09/11 01:28:43;;;;;;;1.95;0.90;;;16.70;99.90;;;;;;5038677;28;20520;-69
2022/09/11 01:31:11;;;;;;;1.45;0.60;;;16.70;99.90;;;;;;5037114;28;20453;-69
2022/09/11 01:33:53;;;;;;;2.40;0.80;;;16.70;99.90;;;;;;5038851;28;21015;-69
2022/09/11 01:36:21;;;;;;;2.38;0.80;;;16.70;99.90;;;;;;5038610;28;20894;-69
2022/09/11 01:38:57;;;;;;;1.70;0.70;;;16.70;99.90;;;;;;5039538;28;20409;-69
2022/09/11 01:41:39;;;;;;;1.60;0.73;;;16.70;99.90;;;;;;5040030;28;20779;-68
2022/09/11 01:44:12;;;;;;;2.00;0.90;;;16.60;99.90;;;;;;5037575;28;20470;-69
2022/09/11 01:46:43;;;;;;;1.77;0.90;;;16.60;99.90;;;;;;5040845;28;20794;-69
2022/09/11 01:49:27;;;;;;;1.88;0.98;;;16.70;99.90;;;;;;5035557;28;20579;-69
2022/09/11 01:51:57;;;;;;;0.75;0.60;;;16.70;99.90;;;;;;5030512;28;20470;-69
2022/09/11 01:54:30;;;;;;;1.63;0.60;;;16.70;99.90;;;;;;5048885;28;20444;-69
2022/09/11 01:57:05;;;;;;;2.20;0.70;;;16.70;99.90;;;;;;5049188;28;20373;-69
2022/09/11 01:59:46;;;;;;;3.50;1.00;;;16.70;99.90;;;;;;5049575;28;20856;-69
2022/09/11 02:02:18;;;;;;;1.48;0.90;;;16.70;99.90;;;;;;5053013;28;20496;-69
2022/09/11 02:04:51;;;;;;;1.60;0.70;;;16.70;99.90;;;;;;5052599;28;20412;-69
2022/09/11 02:07:22;;;;;;;2.28;0.77;;;16.70;99.90;;;;;;5052880;28;20878;-69
2022/09/11 02:10:05;;;;;;;1.40;0.80;;;16.80;99.90;;;;;;5053380;28;20790;-70
2022/09/11 02:12:44;;;;;;;1.15;0.70;;;16.80;99.90;;;;;;5052751;28;20452;-68
2022/09/11 02:15:14;;;;;;;1.40;0.80;;;16.80;99.90;;;;;;5052575;28;20901;-70
2022/09/11 02:17:51;;;;;;;1.85;0.60;;;16.80;99.90;;;;;;5049654;28;20409;-70
2022/09/11 02:20:19;;;;;;;1.25;0.80;;;16.80;99.90;;;;;;5044680;28;20409;-70
2022/09/11 02:22:45;;;;;;;1.33;0.70;;;16.80;99.90;;;;;;5045490;28;20405;-69
2022/09/11 02:25:12;;;;;;;3.10;0.60;;;16.80;99.90;;;;;;5048524;28;20420;-69
2022/09/11 02:27:38;;;;;;;3.10;0.65;;;16.80;99.90;;;;;;5039877;28;20488;-69
2022/09/11 02:30:05;;;;;;;0.90;0.70;;;16.80;99.90;;;;;;5038618;28;20391;-69
2022/09/11 02:32:32;;;;;;;1.30;0.70;;;16.80;99.90;;;;;;5040256;28;20894;-69
2022/09/11 02:34:58;;;;;;;1.30;0.60;;;16.80;99.90;;;;;;5041777;28;20413;-69
2022/09/11 02:37:31;;;;;;;1.03;0.70;;;16.80;99.90;;;;;;5040762;28;20830;-69
2022/09/11 02:40:15;;;;;;;1.60;0.80;;;16.70;99.90;;;;;;5037496;28;20414;-70
2022/09/11 02:43:00;;;;;;;1.02;0.80;;;16.70;99.90;;;;;;5044136;28;20385;-69
2022/09/11 02:45:53;;;;;;;1.90;0.70;;;16.70;99.90;;;;;;5043785;28;20407;-68
2022/09/11 02:48:40;;;;;;;1.40;0.80;;;16.70;99.90;;;;;;4993288;28;20745;-69
2022/09/11 02:51:35;;;;;;;2.83;0.80;;;16.80;99.90;;;;;;5039373;28;20414;-69
2022/09/11 02:54:13;;;;;;;1.02;0.80;;;16.70;99.90;;;;;;5041463;28;20469;-69
2022/09/11 02:56:55;;;;;;;2.20;1.20;;;16.70;99.90;;;;;;5039479;28;20414;-68
2022/09/11 02:59:25;;;;;;;2.30;0.80;;;16.70;99.90;;;;;;5046471;28;20405;-69
2022/09/11 03:01:54;;;;;;;1.20;0.65;;;16.70;99.90;;;;;;5038424;28;20893;-69
2022/09/11 03:04:22;;;;;;;2.08;0.70;;;16.80;99.90;;;;;;5039171;28;20417;-69
2022/09/11 03:06:49;;;;;;;1.98;0.63;;;16.70;99.90;;;;;;5042711;28;20454;-68
2022/09/11 03:09:16;;;;;;;1.52;1.00;;;16.70;99.90;;;;;;5041401;28;20417;-68
2022/09/11 03:11:42;;;;;;;1.00;0.80;;;16.70;99.90;;;;;;5039762;28;20483;-69
2022/09/11 03:14:08;;;;;;;0.90;0.60;;;16.70;99.90;;;;;;5040283;28;20411;-69
2022/09/11 03:16:35;;;;;;;1.20;0.90;;;16.70;99.90;;;;;;5039304;28;20429;-69
2022/09/11 03:19:01;;;;;;;1.00;0.80;;;16.60;99.90;;;;;;5030333;28;20436;-68
2022/09/11 03:21:27;;;;;;;1.33;0.80;;;16.60;99.90;;;;;;5038585;28;20564;-69
2022/09/11 03:23:53;;;;;;;3.10;0.90;;;16.50;99.90;;;;;;5043343;28;20441;-69
2022/09/11 03:26:19;;;;;;;2.25;0.90;;;16.40;99.90;;;;;;5042104;28;20410;-69
2022/09/11 03:28:45;;;;;;;2.60;0.70;;;16.40;99.90;;;;;;5051322;28;20382;-68
2022/09/11 03:31:12;;;;;;;2.50;1.00;;;16.50;99.90;;;;;;5041316;28;20403;-68
2022/09/11 03:33:37;;;;;;;0.98;0.60;;;16.50;99.90;;;;;;5040511;28;20426;-69
2022/09/11 03:36:03;;;;;;;2.20;0.90;;;16.50;99.90;;;;;;5041209;28;20405;-68
2022/09/11 03:38:29;;;;;;;0.80;0.60;;;16.50;99.90;;;;;;5040513;28;20426;-69
2022/09/11 03:40:54;;;;;;;1.40;0.70;;;16.40;99.90;;;;;;5085352;22;20422;-75
2022/09/11 03:43:20;;;;;;;1.70;0.60;;;16.50;99.90;;;;;;5072382;28;20932;-76
2022/09/11 03:45:50;;;;;;;2.60;0.80;;;16.30;99.90;;;;;;5071620;28;20463;-75
2022/09/11 03:48:17;;;;;;;2.05;0.90;;;16.10;99.90;;;;;;5069893;28;20497;-77
2022/09/11 03:50:44;;;;;;;1.90;0.70;;;16.00;99.90;;;;;;5076909;28;20396;-76
2022/09/11 03:53:10;;;;;;;1.70;1.10;;;15.90;99.90;;;;;;5070652;28;20410;-75
2022/09/11 03:55:36;;;;;;;1.10;1.00;;;15.80;99.90;;;;;;5070333;28;20392;-75
2022/09/11 03:58:02;;;;;;;3.70;1.10;;;15.70;99.90;;;;;;5071431;28;20387;-75
2022/09/11 04:00:28;;;;;;;1.70;1.25;;;15.80;99.90;;;;;;5069773;28;20886;-75
2022/09/11 04:02:57;;;;;;;3.20;1.20;;;15.70;99.90;;;;;;5070383;28;20750;-75
2022/09/11 04:05:25;;;;;;;2.10;1.10;;;15.70;99.90;;;;;;5071299;28;20857;-75
2022/09/11 04:07:52;;;;;;;1.50;1.40;;;15.50;99.90;;;;;;5070934;28;20388;-76
2022/09/11 04:10:19;;;;;;;1.30;1.10;;;15.50;99.90;;;;;;5071312;28;20402;-76
2022/09/11 04:12:45;;;;;;;1.90;1.00;;;15.50;99.90;;;;;;5069958;28;20501;-76
2022/09/11 04:15:10;;;;;;;1.80;0.80;;;15.50;99.90;;;;;;5075900;28;20470;-75
2022/09/11 04:17:36;;;;;;;1.80;0.80;;;15.50;99.90;;;;;;5075791;28;20431;-76
2022/09/11 04:20:03;;;;;;;1.50;1.40;;;15.40;99.90;;;;;;5076494;28;20468;-75
2022/09/11 04:22:29;;;;;;;3.20;1.20;;;15.40;99.90;;;;;;5076955;28;20401;-75
2022/09/11 04:24:54;;;;;;;2.07;1.10;;;15.30;99.90;;;;;;5077599;28;20781;-74
2022/09/11 04:27:22;;;;;;;2.60;1.10;;;15.30;99.90;;;;;;5057369;28;20389;-73
2022/09/11 04:29:47;;;;;;;2.40;0.90;;;15.30;99.90;;;;;;5050540;28;20381;-76
2022/09/11 04:32:13;;;;;;;3.97;1.10;;;15.30;99.90;;;;;;5050847;28;20382;-75
2022/09/11 04:34:39;;;;;;;1.33;1.10;;;15.20;99.90;;;;;;5050436;28;20456;-75
2022/09/11 04:37:05;;;;;;;1.80;1.00;;;15.10;99.90;;;;;;5051090;28;20463;-76
2022/09/11 04:39:31;;;;;;;2.13;1.30;;;15.10;99.90;;;;;;5050898;28;20765;-75
2022/09/11 04:41:56;;;;;;;1.73;1.20;;;15.10;99.90;;;;;;5048862;28;20503;-75
2022/09/11 04:44:25;;;;;;;1.30;1.20;;;15.00;99.90;;;;;;5050286;28;20886;-75
2022/09/11 04:46:50;;;;;;;1.38;1.20;;;15.00;99.90;;;;;;5049377;28;20417;-76
2022/09/11 04:49:16;;;;;;;1.67;1.10;;;15.00;99.90;;;;;;5050360;28;20413;-76
2022/09/11 04:51:42;;;;;;;1.80;1.30;;;14.90;99.90;;;;;;5050525;28;20388;-75
2022/09/11 04:54:12;;;;;;;1.10;1.00;;;14.90;99.90;;;;;;5050248;28;20401;-75
2022/09/11 04:56:38;;;;;;;1.92;1.30;;;14.90;99.90;;;;;;5050355;28;20389;-75
2022/09/11 04:59:18;;;;;;;3.17;1.47;;;15.00;99.90;;;;;;5050200;28;20389;-75
2022/09/11 05:01:45;;;;;;;2.00;1.30;;;15.10;99.90;;;;;;5050276;28;20389;-75
2022/09/11 05:04:12;;;;;;;3.13;1.30;;;15.10;99.90;;;;;;5064788;28;20405;-75
2022/09/11 05:06:37;;;;;;;1.50;1.10;;;15.10;99.90;;;;;;5050468;28;20385;-76
2022/09/11 05:09:06;;;;;;;2.22;0.82;;;15.10;99.90;;;;;;5049886;28;20374;-76
2022/09/11 05:11:32;;;;;;;1.58;1.20;;;15.10;99.90;;;;;;5050118;28;20380;-76
2022/09/11 05:13:58;;;;;;;1.20;1.10;;;15.20;99.90;;;;;;5049767;28;20763;-75
2022/09/11 05:16:28;;;;;;;2.53;1.23;;;15.20;99.90;;;;;;5050051;28;20385;-76
2022/09/11 05:18:55;;;;;;;1.55;1.30;;;15.10;99.90;;;;;;5048846;28;20400;-76
2022/09/11 05:21:23;;;;;;;1.52;1.10;;;15.10;99.90;;;;;;5048876;28;20386;-76
2022/09/11 05:23:59;;;;;;;2.10;1.30;;;15.30;99.90;;;;;;5047783;28;20761;-76
2022/09/11 05:26:35;;;;;;;2.08;1.17;;;15.20;99.90;;;;;;5059111;28;20920;-75
2022/09/11 05:29:06;;;;;;;2.20;1.40;;;15.20;99.90;;;;;;5070200;28;20398;-76
2022/09/11 05:31:31;;;;;;;1.38;1.23;;;15.20;99.90;;;;;;5068749;28;20433;-75
2022/09/11 05:34:00;;;;;;;1.40;1.30;;;15.30;99.90;;;;;;5069557;28;20796;-75
2022/09/11 05:36:27;;;;;;;2.13;1.10;;;15.20;99.90;;;;;;5073800;28;20398;-75
2022/09/11 05:38:53;;;;;;;1.20;1.10;;;15.30;99.90;;;;;;5074010;28;20387;-74
2022/09/11 05:41:19;;;;;;;1.33;1.20;;;15.20;99.90;;;;;;5074075;28;20406;-74
2022/09/11 05:43:45;;;;;;;1.60;1.20;;;15.30;99.90;;;;;;5073556;28;20461;-74
2022/09/11 05:46:13;;;;;;;2.38;1.40;;;15.30;99.90;;;;;;5073817;28;20873;-75
2022/09/11 05:48:39;;;;;;;1.70;1.15;;;15.20;99.90;;;;;;5073843;28;20372;-75
2022/09/11 05:51:10;;;;;;;2.55;1.75;;;15.30;99.90;;;;;;5073555;28;20475;-75
2022/09/11 05:53:36;;;;;;;2.50;1.40;;;15.20;99.90;;;;;;5073560;28;20380;-74
2022/09/11 05:56:06;;;;;;;2.90;2.10;;;15.30;99.90;;;;;;5073667;28;20801;-75
2022/09/11 05:58:32;;;;;;;2.15;1.30;;;15.30;99.90;;;;;;5072156;28;20739;-74
2022/09/11 06:01:16;;;;;;;3.05;1.23;;;15.40;99.90;;;;;;5072397;28;20384;-74
2022/09/11 06:03:42;;;;;;;2.95;1.20;;;15.50;99.90;;;;;;5071345;28;20412;-75
2022/09/11 06:06:10;;;;;;;3.65;1.90;;;15.40;99.90;;;;;;5073485;28;20379;-75
2022/09/11 06:08:36;;;;;;;1.45;1.30;;;15.40;99.90;;;;;;5070552;28;20401;-74
2022/09/11 06:11:08;;;;;;;2.20;1.10;;;15.40;99.90;;;;;;5072783;28;20399;-74
2022/09/11 06:13:39;;;;;;;4.30;1.60;;;15.50;99.90;;;;;;5072119;28;20398;-74
2022/09/11 06:16:18;;;;;;;3.10;1.30;;;15.40;99.90;;;;;;5073425;28;20387;-75
2022/09/11 06:18:47;;;;;;;1.45;1.10;;;15.50;99.90;;;;;;5073224;28;20391;-74
2022/09/11 06:21:18;;;;;;;1.40;1.30;;;15.50;99.90;;;;;;5073206;28;20475;-75
2022/09/11 06:23:45;;;;;;;2.07;1.50;;;15.50;99.90;;;;;;5071684;28;20909;-74
2022/09/11 06:26:12;;;;;;;4.18;1.50;;;15.50;99.90;;;;;;5065937;28;20386;-74
2022/09/11 06:28:38;;;;;;;2.20;1.08;;;15.50;99.90;;;;;;5053325;28;20453;-74
2022/09/11 06:31:06;;;;;;;2.42;1.10;;;15.60;99.90;;;;;;5053228;28;20374;-74
2022/09/11 06:33:33;;;;;;;2.67;1.23;;;15.50;99.90;;;;;;5053101;28;20910;-74
2022/09/11 06:36:00;;;;;;;3.27;1.40;;;15.60;99.90;;;;;;5052997;28;20393;-74
2022/09/11 06:38:27;;;;;;;1.40;0.93;;;15.70;99.90;;;;;;5052023;28;20404;-74
2022/09/11 06:40:53;;;;;;;1.20;1.10;;;15.90;99.90;;;;;;5053634;28;20405;-74
2022/09/11 06:43:19;;;;;;;1.90;1.23;;;16.10;99.90;;;;;;5050691;28;20527;-74
2022/09/11 06:45:47;;;;;;;3.13;1.30;;;16.00;99.90;;;;;;5052294;28;20464;-76
2022/09/11 06:48:16;;;;;;;2.10;1.00;;;15.90;99.90;;;;;;5052786;28;20412;-76
2022/09/11 06:50:41;;;;;;;2.50;1.00;;;16.00;99.90;;;;;;5056129;28;20439;-76
2022/09/11 06:53:07;;;;;;;7.25;1.48;;;15.90;99.90;;;;;;5068035;28;20427;-76
2022/09/11 06:55:33;;;;;;;2.40;1.08;;;15.90;99.90;;;;;;5065977;28;20492;-76
2022/09/11 06:57:59;;;;;;;2.20;1.00;;;16.00;99.90;;;;;;5068201;28;20968;-76
2022/09/11 07:00:25;;;;;;;2.40;1.05;;;16.10;99.90;;;;;;5071675;28;20386;-76
2022/09/11 07:02:55;;;;;;;1.30;1.10;;;16.30;99.90;;;;;;5071185;28;20407;-75
2022/09/11 07:05:21;;;;;;;3.35;1.67;;;16.30;99.90;;;;;;5072299;28;20407;-75
2022/09/11 07:07:49;;;;;;;1.90;1.10;;;16.40;99.90;;;;;;5073130;28;20437;-75
2022/09/11 07:10:15;;;;;;;1.85;1.00;;;16.50;99.90;;;;;;5068808;28;20407;-75
2022/09/11 07:12:40;;;;;;;1.60;1.10;;;16.40;99.90;;;;;;5067033;28;20453;-75
2022/09/11 07:15:08;;;;;;;1.80;1.00;;;16.40;99.90;;;;;;5068441;28;20447;-75
2022/09/11 07:17:33;;;;;;;2.65;1.10;;;16.40;99.90;;;;;;5066977;28;20787;-75
2022/09/11 07:19:59;;;;;;;1.50;0.88;;;16.50;99.90;;;;;;5062195;28;20490;-75
2022/09/11 07:22:25;;;;;;;0.88;0.80;;;16.50;99.90;;;;;;5068830;28;20419;-75
2022/09/11 07:24:53;;;;;;;1.73;1.00;;;16.60;99.90;;;;;;5068738;28;20408;-76
2022/09/11 07:27:19;;;;;;;2.10;1.10;;;16.70;99.90;;;;;;5065350;28;20478;-75
2022/09/11 07:29:44;;;;;;;1.95;1.38;;;16.70;99.90;;;;;;5069242;28;20405;-75
2022/09/11 07:32:10;;;;;;;2.60;1.20;;;16.70;99.90;;;;;;5069589;28;20411;-76
2022/09/11 07:34:35;;;;;;;1.02;0.82;;;16.90;99.90;;;;;;5069857;28;20430;-76
2022/09/11 07:37:01;;;;;;;2.67;1.20;;;16.80;99.90;;;;;;5062139;28;20407;-76
2022/09/11 07:39:27;;;;;;;2.00;1.38;;;16.80;99.90;;;;;;5063059;28;20423;-75
2022/09/11 07:41:52;;;;;;;1.70;1.30;;;16.90;99.90;;;;;;5066720;28;20411;-75
2022/09/11 07:44:19;;;;;;;2.60;1.30;;;16.90;99.90;;;;;;5062529;28;20415;-75
2022/09/11 07:46:44;;;;;;;1.58;1.40;;;16.90;99.90;;;;;;5064651;28;20491;-75
2022/09/11 07:49:10;;;;;;;3.23;1.47;;;16.90;99.90;;;;;;5057562;28;20574;-75
2022/09/11 07:51:39;;;;;;;1.33;1.20;;;16.90;99.90;;;;;;5051063;28;20411;-75
2022/09/11 07:54:04;;;;;;;3.20;1.30;;;16.90;99.90;;;;;;5065995;28;20473;-76
2022/09/11 07:56:30;;;;;;;1.27;1.17;;;17.00;99.90;;;;;;5060051;28;20507;-75
2022/09/11 07:58:56;;;;;;;2.10;1.33;;;17.00;99.90;;;;;;5060396;28;20967;-75
2022/09/11 08:01:24;;;;;;;1.67;1.10;;;17.00;99.90;;;;;;5057966;28;20380;-76
2022/09/11 08:03:59;;;;;;;2.00;1.30;;;17.00;99.90;;;;;;5062377;28;20501;-76
2022/09/11 08:06:26;;;;;;;1.20;1.10;;;17.00;99.90;;;;;;5060502;28;20515;-76
2022/09/11 08:08:54;;;;;;;1.40;1.20;;;17.10;99.90;;;;;;5060367;28;20409;-76
2022/09/11 08:11:21;;;;;;;2.30;1.20;;;17.10;99.90;;;;;;5064395;28;20483;-76
2022/09/11 08:13:52;;;;;;;2.60;1.50;;;17.20;99.90;;;;;;5061771;28;20510;-75
2022/09/11 08:16:19;;;;;;;1.38;1.00;;;17.30;99.90;;;;;;5060585;28;20411;-75
2022/09/11 08:18:46;;;;;;;2.78;1.30;;;17.30;99.90;;;;;;5077017;28;20396;-75
2022/09/11 08:21:12;;;;;;;1.30;1.20;;;17.30;99.90;;;;;;5047702;28;20419;-75
2022/09/11 08:23:39;;;;;;;2.30;1.20;;;17.40;99.90;;;;;;5058023;28;21031;-74
2022/09/11 08:26:07;;;;;;;1.73;1.20;;;17.30;99.90;;;;;;5068627;28;20415;-74
2022/09/11 08:28:34;;;;;;;1.80;1.17;;;17.30;99.90;;;;;;5050851;28;20380;-75
2022/09/11 08:31:00;;;;;;;1.92;1.20;;;17.40;99.90;;;;;;5056486;28;20398;-75
2022/09/11 08:33:27;;;;;;;2.20;1.10;;;17.60;99.90;;;;;;5057983;28;20397;-74
2022/09/11 08:35:53;;;;;;;1.10;0.90;;;17.60;99.90;;;;;;5068542;28;20928;-75
2022/09/11 08:38:18;;;;;;;1.20;1.10;;;17.80;99.90;;;;;;5064544;28;20508;-74
2022/09/11 08:40:45;;;;;;;1.10;1.00;;;17.90;99.90;;;;;;5066827;28;20757;-75
2022/09/11 08:43:32;;;;;;;1.43;1.33;;;17.90;99.90;;;;;;5059671;28;20482;-75
2022/09/11 08:46:03;;;;;;;1.90;1.10;;;17.90;99.90;;;;;;5063829;28;20505;-74
2022/09/11 08:48:58;;;;;;;1.33;1.20;;;18.00;99.90;;;;;;5057392;28;20431;-74
2022/09/11 08:51:24;;;;;;;1.15;1.05;;;18.10;99.90;;;;;;5063231;28;20416;-74
2022/09/11 08:53:50;;;;;;;2.53;1.05;;;18.10;99.90;;;;;;5062984;28;20745;-74
2022/09/11 08:56:21;;;;;;;1.33;1.20;;;18.30;99.90;;;;;;5055791;28;20518;-73
2022/09/11 08:59:03;;;;;;;2.35;1.52;;;18.40;99.90;;;;;;5058664;28;20897;-75
2022/09/11 09:01:58;;;;;;;1.67;1.17;;;18.50;99.90;;;;;;5061816;28;20408;-74
2022/09/11 09:04:45;;;;;;;1.50;1.20;;;18.40;99.90;;;;;;5058446;28;20796;-74
2022/09/11 09:07:36;;;;;;;1.93;1.20;;;18.50;99.90;;;;;;5060334;28;20932;-73
2022/09/11 09:10:27;;;;;;;1.55;1.08;;;18.50;99.90;;;;;;5063249;28;21087;-74
2022/09/11 09:13:02;;;;;;;3.10;1.30;;;18.50;99.90;;;;;;5060601;28;20983;-74
2022/09/11 09:15:43;;;;;;;1.15;0.93;;;18.50;99.90;;;;;;5065281;28;20486;-74
2022/09/11 09:18:33;;;;;;;2.85;1.40;;;18.40;99.90;;;;;;5059351;28;20961;-75
2022/09/11 09:21:09;;;;;;;2.20;1.30;;;18.20;99.90;;;;;;5063719;28;20403;-74
2022/09/11 09:23:42;;;;;;;2.00;1.30;;;18.30;99.90;;;;;;5061908;28;20974;-74
2022/09/11 09:26:16;;;;;;;1.48;1.30;;;18.30;99.90;;;;;;5058604;28;20414;-74
2022/09/11 09:28:46;;;;;;;1.20;1.10;;;18.50;99.90;;;;;;5050102;28;20389;-75
2022/09/11 09:31:17;;;;;;;1.20;1.00;;;18.60;99.90;;;;;;5049935;28;21045;-75
2022/09/11 09:33:51;;;;;;;1.95;1.10;;;18.50;99.90;;;;;;5048469;28;20823;-75
2022/09/11 09:36:33;;;;;;;3.70;1.60;;;18.60;99.90;;;;;;5050095;28;20374;-75
2022/09/11 09:39:00;;;;;;;2.55;1.20;;;18.80;99.90;;;;;;5050075;28;20382;-74
2022/09/11 09:41:35;;;;;;;3.23;1.50;;;18.90;99.90;;;;;;5071895;22;20512;-68
2022/09/11 09:44:21;;;;;;;1.57;0.90;;;19.10;99.90;;;;;;5049607;28;20514;-68
2022/09/11 09:46:49;;;;;;;1.88;1.10;;;19.20;99.90;;;;;;5050051;28;20401;-68
2022/09/11 09:49:28;;;;;;;2.20;1.10;;;19.50;99.90;;;;;;5032178;28;20417;-69
2022/09/11 09:51:57;;;;;;;1.90;0.90;;;19.40;99.90;;;;;;5050073;28;20738;-68
2022/09/11 09:54:27;;;;;;;1.48;1.10;;;19.50;99.90;;;;;;5049605;28;20424;-69
2022/09/11 09:57:04;;;;;;;1.50;1.10;;;19.60;99.90;;;;;;5048715;28;20887;-67
2022/09/11 09:59:46;;;;;;;1.73;1.20;;;19.30;99.90;;;;;;5049120;28;20779;-67
2022/09/11 10:02:12;;;;;;;1.95;1.30;;;19.10;99.90;;;;;;5049515;28;20871;-68
2022/09/11 10:04:37;;;;;;;1.80;1.30;;;19.10;99.90;;;;;;5049570;28;20484;-68
2022/09/11 10:07:12;;;;;;;2.10;1.20;;;19.20;99.90;;;;;;5049757;28;20492;-68
2022/09/11 10:09:51;;;;;;;1.80;1.10;;;19.10;99.90;;;;;;5042912;28;20381;-68
2022/09/11 10:12:24;;;;;;;1.50;1.10;;;19.40;99.90;;;;;;5047828;28;20484;-69
2022/09/11 10:14:54;;;;;;;1.10;0.90;;;19.40;99.90;;;;;;5049910;28;20403;-68
2022/09/11 10:17:30;;;;;;;1.30;0.90;;;19.50;99.90;;;;;;5049375;28;20411;-69
2022/09/11 10:20:11;;;;;;;1.20;1.00;;;19.70;99.90;;;;;;5047848;28;20401;-70
2022/09/11 10:22:36;;;;;;;2.17;1.00;;;19.80;99.90;;;;;;5045601;28;20736;-69
2022/09/11 10:25:12;;;;;;;1.60;1.00;;;20.00;99.90;;;;;;5052023;28;20447;-69
2022/09/11 10:27:44;;;;;;;1.92;1.00;;;19.90;99.90;;;;;;5051984;28;20383;-69
2022/09/11 10:30:34;;;;;;;8.23;1.60;;;20.00;99.90;;;;;;5053222;28;20452;-69
2022/09/11 10:33:04;;;;;;;1.30;1.00;;;20.10;99.90;;;;;;5046345;28;20413;-70
2022/09/11 10:35:32;;;;;;;1.20;1.10;;;20.30;99.90;;;;;;5053021;28;20435;-70
2022/09/11 10:38:02;;;;;;;1.50;0.90;;;20.30;99.90;;;;;;5050416;28;20397;-70
2022/09/11 10:40:28;;;;;;;2.20;1.10;;;20.40;99.90;;;;;;5052802;28;20821;-70
2022/09/11 10:42:53;;;;;;;1.83;1.10;;;20.40;99.90;;;;;;5052195;28;20420;-69
2022/09/11 10:45:21;;;;;;;1.60;1.10;;;20.50;99.90;;;;;;5050686;28;20408;-70
2022/09/11 10:47:49;;;;;;;1.30;1.00;;;20.60;99.90;;;;;;5066493;28;20380;-70
2022/09/11 10:50:24;;;;;;;1.70;1.10;;;20.70;99.90;;;;;;5042422;28;20383;-68
2022/09/11 10:53:16;;;;;;;1.30;1.10;;;20.60;99.90;;;;;;5058302;28;20379;-71
2022/09/11 10:55:51;;;;;;;1.10;1.00;;;20.60;99.90;;;;;;5063459;28;20478;-70
2022/09/11 10:58:22;;;;;;;1.85;1.20;;;20.50;99.90;;;;;;5059823;28;20390;-69
2022/09/11 11:00:50;;;;;;;1.60;1.00;;;20.50;99.90;;;;;;5060634;28;20879;-70
2022/09/11 11:03:20;;;;;;;2.00;0.90;;;20.70;99.90;;;;;;5067684;28;20384;-70
2022/09/11 11:06:00;;;;;;;1.13;1.00;;;20.70;99.90;;;;;;5072972;28;20751;-70
2022/09/11 11:08:47;;;;;;;1.73;1.20;;;21.00;99.90;;;;;;5072569;28;20435;-69
2022/09/11 11:11:34;;;;;;;1.50;0.95;;;21.20;99.90;;;;;;5072598;28;20375;-70
2022/09/11 11:14:24;;;;;;;1.30;0.90;;;21.40;99.90;;;;;;5056227;28;20439;-69
2022/09/11 11:16:55;;;;;;;1.10;1.00;;;21.50;99.90;;;;;;5041527;28;20753;-70
2022/09/11 11:19:57;;;;;;;1.42;0.90;;;21.50;99.90;;;;;;5063885;28;20392;-71
2022/09/11 11:22:53;;;;;;;4.90;1.00;;;21.80;99.90;;;;;;5067523;28;20873;-71
2022/09/11 11:25:39;;;;;;;1.35;1.00;;;21.60;99.40;;;;;;5058957;28;20407;-70
2022/09/11 11:28:20;;;;;;;1.10;0.90;;;21.90;97.00;;;;;;5053914;28;20396;-70
2022/09/11 11:31:16;;;;;;;1.60;0.90;;;23.20;92.70;;;;;;5057212;28;20459;-70
2022/09/11 11:34:15;;;;;;;1.20;0.80;;;23.60;91.50;;;;;;5070706;28;20387;-70
2022/09/11 11:36:54;;;;;;;1.90;0.90;;;23.80;90.30;;;;;;5072196;28;20376;-71
2022/09/11 11:39:26;;;;;;;0.88;0.80;;;24.20;92.80;;;;;;5072160;28;20395;-71
2022/09/11 11:42:07;;;;;;;1.10;0.90;;;25.50;83.90;;;;;;5071992;28;20449;-71
2022/09/11 11:44:43;;;;;;;2.20;1.00;;;25.70;84.40;;;;;;5071594;28;20901;-69
2022/09/11 11:47:10;;;;;;;1.80;0.93;;;24.90;84.80;;;;;;5071726;28;20391;-71
2022/09/11 11:49:50;;;;;;;1.13;0.77;;;24.70;87.60;;;;;;5071996;28;20813;-70
2022/09/11 11:52:25;;;;;;;2.15;1.00;;;24.60;91.20;;;;;;5055267;28;20392;-70
2022/09/11 11:55:04;;;;;;;2.50;1.00;;;24.20;92.70;;;;;;5051748;28;20886;-70
2022/09/11 11:57:37;;;;;;;1.45;1.08;;;24.80;91.00;;;;;;5050398;28;20393;-69
2022/09/11 12:00:08;;;;;;;1.10;1.00;;;24.50;85.40;;;;;;5051506;28;20751;-68
2022/09/11 12:03:12;;;;;;;1.40;0.83;;;25.00;90.10;;;;;;5051276;28;20377;-69
2022/09/11 12:05:37;;;;;;;1.30;1.00;;;24.80;87.20;;;;;;5041609;28;20407;-69
2022/09/11 12:08:09;;;;;;;1.03;0.80;;;24.50;91.50;;;;;;5071463;28;20368;-70
2022/09/11 12:10:37;;;;;;;1.20;1.10;;;25.00;84.40;;;;;;5060520;28;20882;-69
2022/09/11 12:13:11;;;;;;;0.88;0.70;;;24.50;80.50;;;;;;5040410;28;20466;-68
2022/09/11 12:15:38;;;;;;;0.80;0.80;;;24.80;80.20;;;;;;5040703;28;20380;-68
2022/09/11 12:18:20;;;;;;;1.40;0.90;;;23.60;89.60;;;;;;5041379;28;20778;-69
2022/09/11 12:20:46;;;;;;;1.40;0.88;;;23.40;90.00;;;;;;5042218;28;20485;-69
2022/09/11 12:23:30;;;;;;;1.20;1.02;;;23.90;88.60;;;;;;5051137;28;20385;-69
2022/09/11 12:26:09;;;;;;;1.60;1.10;;;23.80;89.80;;;;;;5045052;28;20513;-68
2022/09/11 12:28:36;;;;;;;1.80;0.90;;;23.50;86.90;;;;;;5031317;28;20537;-68
2022/09/11 12:31:07;;;;;;;1.98;0.80;;;23.60;90.00;;;;;;5029659;28;20398;-69
2022/09/11 12:33:42;;;;;;;1.67;1.00;;;23.70;89.70;;;;;;5031108;28;20390;-69
2022/09/11 12:36:12;;;;;;;1.50;1.15;;;23.30;88.80;;;;;;5031179;28;20387;-69
2022/09/11 12:38:46;;;;;;;1.10;1.00;;;23.70;87.10;;;;;;5031524;28;20537;-69
2022/09/11 12:41:24;;;;;;;1.60;1.10;;;23.60;85.30;;;;;;5030855;28;20426;-69
2022/09/11 12:43:49;;;;;;;1.00;1.00;;;23.50;90.00;;;;;;5030358;28;20454;-69
2022/09/11 12:46:21;;;;;;;2.13;1.10;;;23.40;88.10;;;;;;5030995;28;20912;-69
2022/09/11 12:48:51;;;;;;;1.30;0.90;;;23.30;89.40;;;;;;5031049;28;20390;-69
2022/09/11 12:51:24;;;;;;;1.33;0.82;;;23.40;92.20;;;;;;5030772;28;20375;-69
2022/09/11 12:53:59;;;;;;;1.77;0.80;;;23.70;87.90;;;;;;5030572;28;20394;-69
2022/09/11 12:56:26;;;;;;;0.80;0.80;;;23.60;88.00;;;;;;5030724;28;20394;-69
2022/09/11 12:59:06;;;;;;;1.40;1.00;;;23.70;88.70;;;;;;5030749;28;20433;-69
2022/09/11 13:01:35;;;;;;;2.05;0.93;;;24.20;87.60;;;;;;5030578;28;20395;-70
2022/09/11 13:04:13;;;;;;;1.90;0.90;;;24.60;92.00;;;;;;5030326;28;20494;-69
2022/09/11 13:06:50;;;;;;;1.00;0.90;;;24.40;86.20;;;;;;5030530;28;20422;-69
2022/09/11 13:09:38;;;;;;;1.20;0.98;;;24.80;82.50;;;;;;5030643;28;20829;-70